Time;durP1;ratioP1;P1;durP2;ratioP2;P2;SDS_P1;SDS_P2;PMS_P1;PMS_P2;Temp;Humidity;BMP_temperature;BMP_pressure;BME280_temperature;BME280_humidity;BME280_pressure;Samples;Min_cycle;Max_cycle;Signal;HPM_P1;HPM_P2
2024/04/12 00:01:14;;;;;;;10.75;5.75;;;;;;;11.48;100.00;101859.69;5277095;27;20373;-94
2024/04/12 00:03:41;;;;;;;5.82;4.80;;;;;;;11.42;100.00;101852.19;5276359;27;19998;-94
2024/04/12 00:06:17;;;;;;;8.00;4.65;;;;;;;11.44;100.00;101859.88;5277332;27;19998;-94
2024/04/12 00:08:43;;;;;;;9.27;4.38;;;;;;;11.53;100.00;101862.09;5277274;27;19998;-94
2024/04/12 00:11:08;;;;;;;8.88;4.40;;;;;;;11.32;100.00;101862.03;5277263;27;20030;-95
2024/04/12 00:13:40;;;;;;;6.68;4.30;;;;;;;11.28;100.00;101880.28;5276969;27;20013;-93
2024/04/12 00:16:08;;;;;;;5.60;4.00;;;;;;;11.31;100.00;101867.25;5277163;27;20046;-94
2024/04/12 00:18:35;;;;;;;8.77;4.93;;;;;;;11.12;100.00;101857.59;5276661;27;20027;-95
2024/04/12 00:21:03;;;;;;;10.55;4.30;;;;;;;11.07;100.00;101875.03;5276720;27;20051;-94
2024/04/12 00:23:30;;;;;;;10.75;5.00;;;;;;;10.98;100.00;101867.59;5277082;27;19998;-94
2024/04/12 00:26:00;;;;;;;7.97;4.40;;;;;;;11.09;100.00;101872.38;5277075;27;20329;-94
2024/04/12 00:28:27;;;;;;;12.60;5.32;;;;;;;11.01;100.00;101867.47;5276828;27;20035;-93
2024/04/12 00:30:59;;;;;;;9.52;5.07;;;;;;;11.10;100.00;101861.16;5276837;27;20022;-93
2024/04/12 00:33:31;;;;;;;9.88;5.15;;;;;;;11.07;100.00;101862.09;5276350;27;20449;-93
2024/04/12 00:35:58;;;;;;;11.65;5.55;;;;;;;11.05;100.00;101863.06;5276398;27;20013;-94
2024/04/12 00:38:24;;;;;;;15.45;5.90;;;;;;;10.98;100.00;101852.09;5276647;27;20576;-94
2024/04/12 00:40:52;;;;;;;10.27;5.82;;;;;;;10.77;100.00;101847.69;5276809;27;20043;-93
2024/04/12 00:43:18;;;;;;;13.05;6.30;;;;;;;10.85;100.00;101848.25;5276662;27;20121;-93
2024/04/12 00:45:48;;;;;;;12.57;5.57;;;;;;;10.86;100.00;101842.22;5276722;27;19999;-94
2024/04/12 00:48:15;;;;;;;9.75;5.18;;;;;;;10.71;100.00;101847.03;5276873;27;19998;-93
2024/04/12 00:50:42;;;;;;;17.98;6.53;;;;;;;10.50;100.00;101819.38;5277074;27;20010;-94
2024/04/12 00:53:13;;;;;;;13.13;5.90;;;;;;;10.47;100.00;101840.13;5276999;27;20225;-94
2024/04/12 00:55:39;;;;;;;6.95;4.30;;;;;;;10.49;100.00;101834.03;5276720;27;20433;-93
2024/04/12 00:58:09;;;;;;;17.38;5.60;;;;;;;10.42;100.00;101832.56;5276575;27;20085;-94
2024/04/12 01:00:35;;;;;;;14.65;5.63;;;;;;;10.34;100.00;101828.53;5276803;27;20080;-93
2024/04/12 01:03:05;;;;;;;10.20;5.00;;;;;;;10.50;100.00;101843.44;5277365;27;20012;-94
2024/04/12 01:05:35;;;;;;;10.40;4.82;;;;;;;10.40;100.00;101829.19;5276378;27;19999;-94
2024/04/12 01:08:01;;;;;;;15.90;4.70;;;;;;;10.39;100.00;101830.09;5277470;27;20073;-95
2024/04/12 01:10:30;;;;;;;11.75;4.68;;;;;;;10.31;100.00;101820.91;5277280;27;20014;-95
2024/04/12 01:12:57;;;;;;;14.30;5.47;;;;;;;10.16;100.00;101814.50;5277091;27;20057;-94
2024/04/12 01:15:24;;;;;;;14.30;5.28;;;;;;;10.21;100.00;101823.75;5275370;27;20413;-94
2024/04/12 01:17:51;;;;;;;12.00;4.57;;;;;;;10.20;100.00;101829.81;5276746;27;20013;-93
2024/04/12 01:20:17;;;;;;;11.40;4.80;;;;;;;10.10;100.00;101812.97;5277178;27;19998;-94
2024/04/12 01:22:45;;;;;;;23.67;5.13;;;;;;;10.13;100.00;101820.59;5276610;27;19999;-94
2024/04/12 01:25:13;;;;;;;22.70;5.00;;;;;;;10.05;100.00;101826.03;5276734;27;19998;-96
2024/04/12 01:27:39;;;;;;;20.15;5.82;;;;;;;10.08;100.00;101828.50;5276907;27;20006;-96
2024/04/12 01:30:08;;;;;;;18.33;4.97;;;;;;;9.98;100.00;101821.13;5276659;27;19998;-95
2024/04/12 01:32:33;;;;;;;12.27;5.07;;;;;;;9.99;100.00;101822.78;5276487;27;19998;-93
2024/04/12 01:35:03;;;;;;;16.80;5.57;;;;;;;9.85;100.00;101826.69;5276478;27;20042;-94
2024/04/12 01:37:30;;;;;;;14.63;4.38;;;;;;;9.95;100.00;101821.19;5276443;27;20002;-94
2024/04/12 01:40:01;;;;;;;15.35;4.30;;;;;;;9.80;100.00;101802.78;5276421;27;20013;-95
2024/04/12 01:42:27;;;;;;;16.20;5.18;;;;;;;9.77;100.00;101807.19;5276865;27;20009;-93
2024/04/12 01:47:37;;;;;;;17.73;5.55;;;;;;;9.89;100.00;101806.78;5277862;27;20044;-94
2024/04/12 01:50:04;;;;;;;19.40;4.72;;;;;;;9.88;100.00;101814.59;5275811;27;19998;-94
2024/04/12 01:52:30;;;;;;;16.60;5.53;;;;;;;9.81;100.00;101809.59;5276128;27;20010;-93
2024/04/12 01:55:05;;;;;;;18.13;5.22;;;;;;;9.84;100.00;101818.97;5276639;27;20437;-93
2024/04/12 01:57:33;;;;;;;17.45;5.22;;;;;;;9.80;100.00;101812.22;5276330;27;20076;-94
2024/04/12 02:00:01;;;;;;;24.00;5.35;;;;;;;9.74;100.00;101808.13;5276206;27;20521;-93
2024/04/12 02:02:27;;;;;;;11.32;4.57;;;;;;;9.65;100.00;101811.81;5276113;27;19998;-94
2024/04/12 02:04:56;;;;;;;20.10;5.93;;;;;;;9.65;100.00;101821.28;5276298;27;19998;-93
2024/04/12 02:07:27;;;;;;;14.60;5.35;;;;;;;9.48;100.00;101801.19;5276513;27;20004;-93
2024/04/12 02:10:07;;;;;;;16.33;4.70;;;;;;;9.49;100.00;101796.91;5276614;27;19999;-92
2024/04/12 02:12:42;;;;;;;25.65;7.57;;;;;;;9.48;100.00;101790.03;5276803;27;20002;-93
2024/04/12 02:15:25;;;;;;;24.73;5.22;;;;;;;9.45;100.00;101792.72;5276379;27;20012;-93
2024/04/12 02:17:57;;;;;;;14.45;4.32;;;;;;;9.39;100.00;101780.88;5275339;27;20002;-93
2024/04/12 02:20:33;;;;;;;24.85;6.20;;;;;;;9.40;100.00;101793.72;5275276;27;20072;-94
2024/04/12 02:23:05;;;;;;;16.15;4.93;;;;;;;9.40;100.00;101796.28;5275143;27;20005;-93
2024/04/12 02:25:39;;;;;;;25.67;5.88;;;;;;;9.42;100.00;101794.50;5275300;27;20006;-94
2024/04/12 02:28:16;;;;;;;17.17;4.82;;;;;;;9.36;100.00;101796.41;5278190;27;20008;-93
2024/04/12 02:30:53;;;;;;;22.70;6.03;;;;;;;9.41;100.00;101800.56;5278432;27;20006;-92
2024/04/12 02:33:20;;;;;;;21.02;4.50;;;;;;;9.47;100.00;101794.38;5278316;27;20010;-93
2024/04/12 02:35:46;;;;;;;20.27;5.22;;;;;;;9.39;100.00;101789.47;5278368;27;19998;-93
2024/04/12 02:38:15;;;;;;;20.55;5.05;;;;;;;9.51;100.00;101802.84;5278211;27;20005;-93
2024/04/12 02:40:45;;;;;;;16.98;4.60;;;;;;;9.56;100.00;101803.53;5278415;27;20003;-94
2024/04/12 02:43:15;;;;;;;18.88;4.30;;;;;;;9.41;100.00;101800.56;5278300;27;20023;-94
2024/04/12 02:45:51;;;;;;;19.98;4.90;;;;;;;9.32;100.00;101798.25;5278301;27;19999;-93
2024/04/12 02:48:17;;;;;;;19.30;4.88;;;;;;;9.28;100.00;101790.66;5278169;27;19998;-92
2024/04/12 02:50:43;;;;;;;15.07;4.78;;;;;;;9.31;100.00;101799.13;5278151;27;20002;-93
2024/04/12 02:53:17;;;;;;;15.48;5.07;;;;;;;9.26;100.00;101795.84;5277938;27;20454;-94
2024/04/12 02:55:43;;;;;;;16.67;4.60;;;;;;;9.28;100.00;101790.66;5278071;27;20014;-94
2024/04/12 02:58:09;;;;;;;14.15;5.20;;;;;;;9.26;100.00;101790.69;5278144;27;20046;-92
2024/04/12 03:00:37;;;;;;;19.77;4.68;;;;;;;9.18;100.00;101792.69;5278062;27;20009;-95
2024/04/12 03:03:04;;;;;;;14.23;4.20;;;;;;;9.13;100.00;101794.53;5277971;27;20009;-93
2024/04/12 03:05:30;;;;;;;15.25;4.97;;;;;;;9.18;100.00;101810.72;5277882;27;19998;-92
2024/04/12 03:07:55;;;;;;;16.55;4.78;;;;;;;9.08;100.00;101804.16;5277980;27;20433;-93
2024/04/12 03:10:24;;;;;;;13.63;4.22;;;;;;;9.15;100.00;101797.94;5277383;27;20006;-93
2024/04/12 03:12:51;;;;;;;17.75;4.82;;;;;;;9.20;100.00;101801.22;5278315;27;20050;-92
2024/04/12 03:15:20;;;;;;;17.83;4.70;;;;;;;9.19;100.00;101794.34;5278220;27;20322;-91
2024/04/12 03:17:49;;;;;;;18.55;4.28;;;;;;;9.12;100.00;101778.25;5278138;27;20361;-94
2024/04/12 03:20:18;;;;;;;20.85;6.03;;;;;;;9.10;100.00;101781.78;5276414;27;20527;-94
2024/04/12 03:22:47;;;;;;;19.98;5.60;;;;;;;9.10;100.00;101789.50;5276808;27;20105;-94
2024/04/12 03:25:17;;;;;;;19.33;4.47;;;;;;;9.03;100.00;101782.84;5277257;27;19998;-94
2024/04/12 03:27:43;;;;;;;17.85;4.68;;;;;;;8.94;100.00;101783.94;5277424;27;20075;-94
2024/04/12 03:30:13;;;;;;;19.17;4.88;;;;;;;9.00;100.00;101799.22;5305784;27;20314;-94
2024/04/12 03:32:44;;;;;;;15.63;3.95;;;;;;;8.93;100.00;101795.97;5277608;27;19998;-94
2024/04/12 03:35:12;;;;;;;23.15;5.22;;;;;;;8.94;100.00;101800.22;5277079;27;20005;-94
2024/04/12 03:37:38;;;;;;;15.68;4.07;;;;;;;8.88;100.00;101790.13;5275685;27;20002;-94
2024/04/12 03:40:14;;;;;;;13.32;4.15;;;;;;;8.79;100.00;101790.38;5299385;27;20012;-94
2024/04/12 03:42:41;;;;;;;19.73;4.32;;;;;;;8.84;100.00;101790.25;5311011;27;20016;-95
2024/04/12 03:45:12;;;;;;;26.30;4.70;;;;;;;8.81;100.00;101798.91;5311547;27;20001;-94
2024/04/12 03:47:41;;;;;;;17.85;4.35;;;;;;;8.79;100.00;101796.34;5311512;27;20391;-94
2024/04/12 03:50:13;;;;;;;21.70;5.25;;;;;;;8.88;100.00;101790.13;5311668;27;20067;-94
2024/04/12 03:52:44;;;;;;;;;;;;;;;8.94;100.00;101804.53;5312112;27;20407;-94
2024/04/12 03:55:11;;;;;;;18.70;4.25;;;;;;;8.85;100.00;101787.63;5311547;27;20316;-94
2024/04/12 03:57:40;;;;;;;15.52;4.50;;;;;;;8.89;100.00;101786.63;5311644;27;20006;-94
2024/04/12 04:00:11;;;;;;;19.35;4.90;;;;;;;8.83;100.00;101788.53;5311538;27;20343;-94
2024/04/12 04:02:37;;;;;;;21.50;5.50;;;;;;;8.84;100.00;101778.22;5311537;27;20009;-94
2024/04/12 04:05:16;;;;;;;19.10;4.93;;;;;;;8.71;100.00;101769.16;5311394;27;20009;-93
2024/04/12 04:07:45;;;;;;;12.80;4.55;;;;;;;8.83;100.00;101781.69;5311397;27;20013;-94
2024/04/12 04:10:13;;;;;;;11.27;3.40;;;;;;;8.76;100.00;101780.16;5311555;27;19997;-94
2024/04/12 04:12:45;;;;;;;26.27;4.15;;;;;;;8.83;100.00;101766.22;5311297;27;19997;-95
2024/04/12 04:15:14;;;;;;;18.52;4.88;;;;;;;8.74;100.00;101771.63;5311500;27;20005;-95
2024/04/12 04:17:40;;;;;;;20.67;4.88;;;;;;;8.90;100.00;101783.19;5311700;27;20013;-95
2024/04/12 04:20:06;;;;;;;22.23;5.07;;;;;;;8.84;100.00;101767.91;5311694;27;20002;-93
2024/04/12 04:25:01;;;;;;;17.02;4.80;;;;;;;8.81;100.00;101767.16;5312870;26;20008;-94
2024/04/12 04:27:26;;;;;;;11.80;4.30;;;;;;;8.74;100.00;101776.78;5311214;27;20008;-94
2024/04/12 04:29:56;;;;;;;20.08;3.88;;;;;;;8.72;100.00;101783.69;5311094;27;20005;-93
2024/04/12 04:32:22;;;;;;;20.38;4.03;;;;;;;8.66;100.00;101789.03;5311252;27;20013;-94
2024/04/12 04:34:54;;;;;;;21.05;4.63;;;;;;;8.71;100.00;101797.47;5310868;27;20072;-94
2024/04/12 04:37:21;;;;;;;19.77;4.30;;;;;;;8.63;100.00;101778.81;5311624;27;20490;-94
2024/04/12 04:39:46;;;;;;;22.98;5.82;;;;;;;8.73;100.00;101781.09;5311478;27;20005;-94
2024/04/12 04:42:13;;;;;;;18.02;3.95;;;;;;;8.70;100.00;101780.31;5311529;27;20013;-94
2024/04/12 04:44:39;;;;;;;20.73;4.20;;;;;;;8.68;100.00;101779.53;5311951;27;20001;-94
2024/04/12 04:47:05;;;;;;;15.32;3.70;;;;;;;8.50;100.00;101774.00;5311402;27;20070;-95
2024/04/12 04:49:30;;;;;;;12.80;3.47;;;;;;;8.44;100.00;101779.31;5311137;27;19997;-94
2024/04/12 04:51:56;;;;;;;20.48;5.97;;;;;;;8.41;100.00;101774.25;5311534;27;19997;-94
2024/04/12 04:54:22;;;;;;;17.52;4.40;;;;;;;8.45;100.00;101787.88;5311525;27;20001;-93
2024/04/12 04:56:48;;;;;;;19.45;4.95;;;;;;;8.42;100.00;101783.66;5311121;27;20002;-94
2024/04/12 04:59:18;;;;;;;17.33;3.70;;;;;;;8.39;100.00;101770.88;5310704;27;20016;-94
2024/04/12 05:01:48;;;;;;;20.17;3.72;;;;;;;8.37;100.00;101782.91;5311196;27;20013;-93
2024/04/12 05:04:21;;;;;;;15.07;4.72;;;;;;;8.31;100.00;101767.63;5311311;27;19998;-94
2024/04/12 05:06:48;;;;;;;17.90;4.07;;;;;;;8.38;100.00;101778.59;5311326;27;20432;-94
2024/04/12 05:09:18;;;;;;;23.27;4.32;;;;;;;8.40;100.00;101777.72;5311095;27;19998;-94
2024/04/12 05:11:44;;;;;;;17.27;3.63;;;;;;;8.43;100.00;101790.50;5311290;27;20012;-94
2024/04/12 05:14:41;;;;;;;20.45;4.13;;;;;;;8.43;100.00;101782.78;5311233;27;20002;-93
2024/04/12 05:17:03;;;;;;;26.40;5.67;;;;;;;8.49;100.00;101787.75;5313231;27;20456;-94
2024/04/12 05:19:32;;;;;;;17.08;4.35;;;;;;;8.45;100.00;101796.44;5311796;27;20009;-94
2024/04/12 05:22:03;;;;;;;22.98;4.28;;;;;;;8.40;100.00;101798.28;5311931;27;20010;-93
2024/04/12 05:24:29;;;;;;;18.50;3.88;;;;;;;8.41;100.00;101801.69;5311492;27;20001;-94
2024/04/12 05:27:01;;;;;;;23.23;4.68;;;;;;;8.32;100.00;101797.63;5311183;27;20009;-95
2024/04/12 05:29:30;;;;;;;10.23;3.30;;;;;;;8.30;100.00;101801.97;5311227;27;19998;-93
2024/04/12 05:31:56;;;;;;;12.85;3.08;;;;;;;8.28;100.00;101801.16;5311033;27;20016;-92
2024/04/12 05:34:22;;;;;;;16.15;3.92;;;;;;;8.30;100.00;101809.69;5310303;27;20448;-93
2024/04/12 05:36:48;;;;;;;23.05;4.75;;;;;;;8.28;100.00;101799.41;5310337;27;20005;-93
2024/04/12 05:39:13;;;;;;;10.30;3.22;;;;;;;8.15;100.00;101793.75;5310711;27;20013;-94
2024/04/12 05:41:40;;;;;;;10.30;2.88;;;;;;;8.27;100.00;101809.78;5310543;27;20010;-94
2024/04/12 05:44:08;;;;;;;11.50;3.45;;;;;;;8.29;100.00;101815.69;5310306;27;19998;-93
2024/04/12 05:46:39;;;;;;;17.88;4.25;;;;;;;8.25;100.00;101798.66;5310351;27;20048;-94
2024/04/12 05:49:09;;;;;;;16.52;4.22;;;;;;;8.24;100.00;101791.81;5310148;27;20033;-93
2024/04/12 05:51:38;;;;;;;13.90;3.42;;;;;;;8.18;100.00;101789.44;5310296;27;20002;-93
2024/04/12 05:54:15;;;;;;;9.23;3.15;;;;;;;8.10;100.00;101780.19;5310114;27;20443;-93
2024/04/12 05:56:44;;;;;;;17.80;5.47;;;;;;;8.32;100.00;101797.63;5309824;27;20029;-94
2024/04/12 05:59:13;;;;;;;18.60;3.20;;;;;;;8.29;100.00;101783.13;5309972;27;20001;-93
2024/04/12 06:01:51;;;;;;;12.43;3.25;;;;;;;8.39;100.00;101804.31;5311363;27;20009;-93
2024/04/12 06:04:23;;;;;;;15.20;2.97;;;;;;;8.51;100.00;101800.56;5315144;27;20079;-95
2024/04/12 06:06:50;;;;;;;12.00;3.42;;;;;;;8.55;100.00;101791.88;5315221;27;20075;-94
2024/04/12 06:09:20;;;;;;;17.35;3.35;;;;;;;8.64;100.00;101785.66;5313264;27;20008;-94
2024/04/12 06:11:56;;;;;;;11.45;3.58;;;;;;;8.72;100.00;101786.28;5301673;27;20034;-95
2024/04/12 06:14:23;;;;;;;15.85;3.75;;;;;;;8.81;100.00;101791.16;5291025;27;20002;-94
2024/04/12 06:16:52;;;;;;;10.77;2.72;;;;;;;8.90;100.00;101787.47;5303034;27;20009;-95
2024/04/12 06:19:18;;;;;;;17.63;4.15;;;;;;;9.02;100.00;101806.88;5312134;27;20021;-96
2024/04/12 06:21:47;;;;;;;21.88;4.47;;;;;;;9.09;100.00;101792.94;5300620;27;20413;-91
2024/04/12 06:24:15;;;;;;;14.52;3.83;;;;;;;9.27;100.00;101812.19;5303192;27;20005;-94
2024/04/12 06:26:41;;;;;;;13.68;3.10;;;;;;;9.32;100.00;101813.72;5309502;27;20317;-91
2024/04/12 06:29:07;;;;;;;16.25;4.13;;;;;;;9.39;100.00;101816.97;5279550;27;20404;-94
2024/04/12 06:31:35;;;;;;;18.13;3.72;;;;;;;9.40;100.00;101809.16;5287702;27;20014;-94
2024/04/12 06:34:12;;;;;;;25.58;4.03;;;;;;;9.51;100.00;101815.72;5312596;27;20072;-93
2024/04/12 06:36:45;;;;;;;16.92;4.72;;;;;;;9.49;100.00;101804.63;5302388;27;20034;-96
2024/04/12 06:39:12;;;;;;;13.30;4.15;;;;;;;9.55;100.00;101802.69;5289665;27;20013;-95
2024/04/12 06:41:37;;;;;;;18.45;4.20;;;;;;;9.65;100.00;101803.25;5301130;27;20010;-95
2024/04/12 06:44:03;;;;;;;16.83;4.22;;;;;;;9.72;100.00;101812.47;5318953;27;20012;-95
2024/04/12 06:46:32;;;;;;;15.98;3.90;;;;;;;9.95;100.00;101808.31;5320162;27;20006;-95
2024/04/12 06:49:07;;;;;;;18.50;4.10;;;;;;;10.56;100.00;101807.97;5316778;27;20639;-96
2024/04/12 06:54:35;;;;;;;14.93;3.20;;;;;;;15.08;100.00;101804.22;5323757;27;20009;-96
2024/04/12 06:57:04;;;;;;;15.20;3.05;;;;;;;16.57;97.91;101812.13;5319998;27;20034;-96
2024/04/12 06:59:35;;;;;;;18.92;3.60;;;;;;;17.93;81.95;101823.56;5312569;27;20006;-94
2024/04/12 07:02:06;;;;;;;12.98;3.30;;;;;;;18.92;75.42;101811.63;5313788;27;20026;-96
2024/04/12 07:04:32;;;;;;;14.07;3.00;;;;;;;20.62;62.55;101824.41;5307498;27;20016;-95
2024/04/12 07:06:58;;;;;;;11.52;2.38;;;;;;;20.15;59.35;101818.38;5314621;27;20002;-96
2024/04/12 07:09:23;;;;;;;18.25;3.22;;;;;;;19.01;61.48;101837.97;5317074;27;20622;-95
2024/04/12 07:11:51;;;;;;;17.25;3.10;;;;;;;18.51;62.34;101818.78;5314542;27;20325;-96
2024/04/12 07:14:22;;;;;;;15.43;3.30;;;;;;;18.04;63.91;101816.78;5312824;27;19998;-96
2024/04/12 07:16:48;;;;;;;9.35;2.28;;;;;;;17.77;66.09;101828.91;5314099;27;20001;-95
2024/04/12 07:19:14;;;;;;;8.30;2.10;;;;;;;17.68;68.74;101828.69;5312383;27;20034;-95
2024/04/12 07:21:40;;;;;;;16.48;3.35;;;;;;;18.87;61.51;101829.44;5312779;27;20063;-96
2024/04/12 07:24:06;;;;;;;18.13;2.67;;;;;;;18.76;62.34;101838.88;5314783;27;20071;-95
2024/04/12 07:26:32;;;;;;;14.30;3.00;;;;;;;18.63;63.93;101840.66;5315073;27;20001;-95
2024/04/12 07:29:01;;;;;;;15.65;2.83;;;;;;;18.33;62.10;101841.78;5314514;27;20002;-96
2024/04/12 07:31:34;;;;;;;16.95;3.13;;;;;;;18.72;61.79;101826.91;5315520;27;20009;-95
2024/04/12 07:34:05;;;;;;;12.35;2.47;;;;;;;18.28;64.49;101822.97;5313495;27;20001;-94
2024/04/12 07:36:31;;;;;;;17.05;2.72;;;;;;;18.43;62.15;101826.31;5310237;27;20009;-95
2024/04/12 07:39:05;;;;;;;13.13;2.80;;;;;;;18.10;66.37;101834.69;5310787;27;20457;-96
2024/04/12 07:41:48;;;;;;;14.07;2.53;;;;;;;17.69;68.59;101841.66;5311049;27;20005;-95
2024/04/12 07:44:13;;;;;;;13.60;2.30;;;;;;;17.35;73.63;101832.53;5315843;27;20008;-94
2024/04/12 07:46:48;;;;;;;12.40;2.30;;;;;;;17.01;74.14;101839.88;5310659;27;20001;-95
2024/04/12 07:49:24;;;;;;;8.43;1.95;;;;;;;16.87;76.98;101817.28;5312055;27;20013;-96
2024/04/12 07:51:49;;;;;;;10.98;2.33;;;;;;;17.80;74.50;101838.38;5311765;27;19998;-94
2024/04/12 07:54:15;;;;;;;11.80;2.15;;;;;;;20.17;62.31;101853.19;5318572;27;20009;-96
2024/04/12 07:57:07;;;;;;;14.48;2.47;;;;;;;21.38;53.94;101831.44;5321108;26;20080;-95
2024/04/12 07:59:37;;;;;;;16.20;2.75;;;;;;;20.45;56.60;101846.66;5316527;27;20037;-96
2024/04/12 08:02:06;;;;;;;10.60;1.83;;;;;;;20.58;56.23;101851.81;5286388;27;20073;-93
2024/04/12 08:04:37;;;;;;;10.20;2.20;;;;;;;20.90;56.12;101855.41;5316160;27;20001;-94
2024/04/12 08:07:19;;;;;;;16.52;2.72;;;;;;;21.50;52.21;101855.03;5491144;21;20022;-95
2024/04/12 08:09:45;;;;;;;9.63;2.25;;;;;;;21.90;51.71;101841.28;5280823;27;20006;-95
2024/04/12 08:12:26;;;;;;;11.13;1.90;;;;;;;21.49;51.35;101837.63;5278627;27;20046;-95
2024/04/12 08:14:52;;;;;;;10.13;2.30;;;;;;;22.82;47.63;101830.81;5278123;27;20443;-95
2024/04/12 08:17:24;;;;;;;8.63;1.50;;;;;;;24.72;43.55;101844.31;5278469;27;19998;-96
2024/04/12 08:19:55;;;;;;;9.88;1.98;;;;;;;25.76;41.30;101836.78;5278121;27;20003;-96
2024/04/12 08:22:25;;;;;;;8.27;1.50;;;;;;;26.03;40.92;101833.19;5278778;27;20017;-96
2024/04/12 08:24:52;;;;;;;8.10;2.00;;;;;;;23.35;45.67;101827.88;5279664;27;19998;-95
2024/04/12 08:27:26;;;;;;;12.93;2.28;;;;;;;22.70;47.00;101845.84;5281131;27;19998;-95
2024/04/12 08:29:53;;;;;;;11.13;2.22;;;;;;;20.86;51.05;101825.09;5281295;27;20006;-95
2024/04/12 08:32:27;;;;;;;13.82;2.08;;;;;;;20.43;52.34;101833.66;5280598;27;20015;-94
2024/04/12 08:34:56;;;;;;;8.75;1.73;;;;;;;24.41;44.25;101833.16;5278389;27;19998;-96
2024/04/12 08:37:30;;;;;;;9.40;1.52;;;;;;;26.14;40.59;101834.78;5278549;27;20061;-95
2024/04/12 08:39:56;;;;;;;10.30;2.20;;;;;;;26.57;39.68;101842.78;5282388;27;20013;-95
2024/04/12 08:42:28;;;;;;;8.80;2.05;;;;;;;26.11;38.68;101840.34;5278930;27;20009;-96
2024/04/12 08:44:58;;;;;;;8.13;1.42;;;;;;;25.12;40.71;101846.59;5277226;27;19995;-94
2024/04/12 08:50:02;;;;;;;9.20;2.03;;;;;;;24.24;43.12;101837.38;5279141;27;20006;-94
2024/04/12 08:52:46;;;;;;;10.40;2.03;;;;;;;24.51;42.54;101834.00;5279069;27;20013;-95
2024/04/12 08:55:15;;;;;;;13.15;3.17;;;;;;;24.17;42.56;101837.13;5277225;27;19998;-95
2024/04/12 08:57:44;;;;;;;9.27;1.50;;;;;;;24.28;43.28;101839.59;5275522;27;20437;-94
2024/04/12 09:00:21;;;;;;;14.15;2.38;;;;;;;25.26;40.35;101828.56;5278872;27;19994;-96
2024/04/12 09:02:58;;;;;;;14.15;2.70;;;;;;;25.23;40.50;101834.16;5277967;27;19998;-94
2024/04/12 09:05:25;;;;;;;11.85;2.10;;;;;;;25.61;40.76;101833.84;5283591;27;20442;-96
2024/04/12 09:10:27;;;;;;;11.20;1.45;;;;;;;26.15;38.65;101843.53;5613393;21;20283;-95
2024/04/12 09:12:53;;;;;;;472.98;28.45;;;;;;;26.19;nan;101855.44;5351316;26;20082;-93
2024/04/12 09:15:27;;;;;;;22.67;2.75;;;;;;;20.63;nan;101845.28;5354988;26;20005;-94
2024/04/12 09:18:00;;;;;;;9.70;1.90;;;;;;;20.57;nan;101847.53;5347440;26;19996;-91
2024/04/12 09:20:30;;;;;;;14.30;2.88;;;;;;;21.48;nan;101842.03;5349124;26;19997;-91
2024/04/12 09:23:15;;;;;;;9.77;1.83;;;;;;;21.13;nan;101836.97;5348130;26;20042;-91
2024/04/12 09:25:56;;;;;;;6.93;1.45;;;;;;;20.55;nan;101844.16;5316067;26;20001;-92
2024/04/12 09:28:26;;;;;;;14.75;2.47;;;;;;;21.97;nan;101842.41;5322532;26;20017;-91
2024/04/12 09:33:50;;;;;;;11.48;2.63;;;;;;;20.40;nan;101848.78;5344050;26;20013;-92
2024/04/12 09:36:28;;;;;;;12.18;2.20;;;;;;;21.50;nan;101839.28;5326175;26;20016;-92
2024/04/12 09:38:54;;;;;;;8.90;1.77;;;;;;;23.43;nan;101833.28;5348788;26;19997;-93
2024/04/12 09:41:31;;;;;;;17.92;2.88;;;;;;;21.50;nan;101845.38;5350272;26;20001;-91
2024/04/12 09:43:59;;;;;;;17.52;2.03;;;;;;;20.83;nan;101848.97;5349600;26;20074;-92
2024/04/12 09:47:07;;;;;;;8.45;1.75;;;;;;;21.31;nan;101838.13;5348499;26;20000;-91
2024/04/12 10:39:49;;;;;;;12.70;2.67;;;;;;;21.01;nan;101823.03;5350208;26;20070;-91
2024/04/12 10:42:19;;;;;;;11.35;1.40;;;;;;;21.88;nan;101833.50;5350395;26;20360;-92
2024/04/12 10:44:49;;;;;;;7.68;1.95;;;;;;;22.31;nan;101822.03;5349287;26;20008;-90
2024/04/12 10:47:20;;;;;;;9.27;1.60;;;;;;;22.91;nan;101824.72;5350271;26;19992;-92
2024/04/12 10:49:46;;;;;;;8.63;2.10;;;;;;;23.18;nan;101825.94;5352770;26;20040;-89
2024/04/12 10:52:14;;;;;;;13.05;2.47;;;;;;;21.09;nan;101825.03;5353113;26;19997;-90
2024/04/12 10:54:43;;;;;;;15.52;3.63;;;;;;;20.52;nan;101822.44;5350392;26;20013;-91
2024/04/12 10:57:13;;;;;;;13.20;2.50;;;;;;;20.23;nan;101826.47;5352300;26;20012;-91
2024/04/12 10:59:42;;;;;;;13.27;2.50;;;;;;;21.85;nan;101827.66;5351004;26;20078;-92
2024/04/12 11:02:12;;;;;;;10.85;2.30;;;;;;;21.25;nan;101825.50;5323770;26;20422;-92
2024/04/12 11:07:22;;;;;;;14.18;2.70;;;;;;;22.53;nan;101812.28;5355634;26;20008;-91
2024/04/12 11:10:03;;;;;;;13.13;2.50;;;;;;;21.78;nan;101819.47;5350821;26;20000;-94
2024/04/12 11:12:45;;;;;;;9.35;1.88;;;;;;;21.28;nan;101821.78;5353605;26;20003;-90
2024/04/12 11:32:12;;;;;;;6.72;2.00;;;;;;;21.43;nan;101806.59;5350491;26;20052;-91
2024/04/12 11:34:40;;;;;;;9.88;2.22;;;;;;;21.66;nan;101802.91;5351112;26;20015;-91
2024/04/12 11:37:06;;;;;;;11.00;1.90;;;;;;;21.84;nan;101799.72;5350071;26;19997;-90
2024/04/12 11:39:35;;;;;;;7.05;1.45;;;;;;;20.18;nan;101799.78;5353623;26;19997;-89
2024/04/12 11:42:03;;;;;;;10.52;2.35;;;;;;;19.77;nan;101790.66;5349823;26;20016;-90
2024/04/12 11:44:29;;;;;;;10.80;1.90;;;;;;;19.87;nan;101805.59;5351332;26;20335;-91
2024/04/12 11:46:56;;;;;;;9.82;1.80;;;;;;;19.66;nan;101797.50;5349826;26;20016;-91
2024/04/12 11:49:25;;;;;;;7.03;1.83;;;;;;;22.03;nan;101791.94;5351112;26;20427;-91
2024/04/12 11:52:02;;;;;;;9.02;1.77;;;;;;;23.64;nan;101779.59;5351931;26;20467;-91
2024/04/12 11:54:29;;;;;;;10.40;2.30;;;;;;;20.79;nan;101789.78;5350322;26;20064;-89
2024/04/12 11:56:57;;;;;;;11.38;1.83;;;;;;;21.54;nan;101780.28;5352359;26;20048;-90
2024/04/12 11:59:27;;;;;;;10.02;1.55;;;;;;;21.44;nan;101776.75;5349647;26;20012;-90
2024/04/12 12:01:59;;;;;;;9.50;1.50;;;;;;;22.57;nan;101777.69;5352715;26;19997;-90
2024/04/12 12:04:25;;;;;;;7.07;1.90;;;;;;;22.89;nan;101776.66;5348884;26;20017;-91
2024/04/12 12:06:51;;;;;;;12.57;2.08;;;;;;;24.26;nan;101770.31;5351137;26;19997;-91
2024/04/12 12:09:20;;;;;;;7.03;1.42;;;;;;;25.28;nan;101760.56;5349287;26;20021;-91
2024/04/12 12:11:49;;;;;;;8.13;1.70;;;;;;;25.92;nan;101769.97;5352309;26;20001;-90
2024/04/12 12:14:17;;;;;;;5.88;1.40;;;;;;;25.67;nan;101763.66;5347166;26;19997;-91
2024/04/12 12:16:44;;;;;;;9.60;1.50;;;;;;;27.08;nan;101764.09;5352757;26;20012;-91
2024/04/12 12:19:10;;;;;;;10.23;1.60;;;;;;;25.80;nan;101757.94;5349680;26;20007;-92
2024/04/12 12:21:38;;;;;;;8.50;1.45;;;;;;;25.79;nan;101749.19;5351805;26;20020;-90
2024/04/12 12:24:04;;;;;;;8.05;1.70;;;;;;;26.95;nan;101763.75;5349394;26;20052;-90
2024/04/12 12:26:31;;;;;;;8.18;1.98;;;;;;;26.58;nan;101757.03;5344312;26;20013;-90
2024/04/12 12:28:57;;;;;;;10.90;1.75;;;;;;;22.96;nan;101761.13;5343341;26;20004;-89
2024/04/12 12:31:22;;;;;;;11.90;1.77;;;;;;;23.41;nan;101769.38;5346543;26;20001;-89
2024/04/12 12:33:49;;;;;;;11.57;2.42;;;;;;;25.47;nan;101756.91;5347519;26;19997;-90
2024/04/12 12:36:16;;;;;;;8.88;1.52;;;;;;;25.61;nan;101748.41;5345847;26;20001;-90
2024/04/12 12:38:42;;;;;;;8.65;1.65;;;;;;;27.82;nan;101750.81;5351607;26;20013;-91
2024/04/12 12:41:08;;;;;;;8.57;1.95;;;;;;;26.13;nan;101756.34;5348358;26;19993;-91
2024/04/12 12:43:34;;;;;;;9.13;1.52;;;;;;;25.19;nan;101746.47;5351210;26;20015;-90
2024/04/12 12:46:02;;;;;;;12.07;1.80;;;;;;;26.68;nan;101747.16;5349448;26;20372;-91
2024/04/12 12:48:27;;;;;;;10.02;2.90;;;;;;;25.79;nan;101751.00;5336552;26;19998;-90
2024/04/12 12:50:57;;;;;;;7.40;1.45;;;;;;;24.88;nan;101746.78;5324691;26;20004;-91
2024/04/12 12:53:25;;;;;;;9.82;2.63;;;;;;;25.44;nan;101739.53;5343099;26;19997;-89
2024/04/12 12:55:52;;;;;;;5.57;1.35;;;;;;;28.49;nan;101739.81;5342401;26;20008;-91
2024/04/12 12:58:25;;;;;;;8.70;2.47;;;;;;;26.73;nan;101749.28;5348546;26;20005;-90